createdAt,value
2022-12-20T00:00:03.243Z,999.19
2022-12-20T00:01:03.249Z,999.28
2022-12-20T00:02:03.399Z,999.21
2022-12-20T00:03:03.327Z,999.23
2022-12-20T00:04:03.293Z,999.18
2022-12-20T00:05:03.298Z,999.21
2022-12-20T00:06:03.309Z,999.23
2022-12-20T00:07:03.335Z,999.25
2022-12-20T00:08:03.337Z,999.26
2022-12-20T00:09:03.362Z,999.26
2022-12-20T00:10:03.368Z,999.23
2022-12-20T00:11:03.385Z,999.25
2022-12-20T00:12:03.398Z,999.27
2022-12-20T00:13:03.406Z,999.31
2022-12-20T00:14:03.437Z,999.31
2022-12-20T00:15:03.432Z,999.38
2022-12-20T00:16:03.448Z,999.45
2022-12-20T00:17:03.464Z,999.52
2022-12-20T00:18:03.571Z,999.56
2022-12-20T00:19:03.509Z,999.58
2022-12-20T00:20:03.503Z,999.63
2022-12-20T00:21:03.533Z,999.67
2022-12-20T00:22:03.523Z,999.68
2022-12-20T00:23:03.546Z,999.65
2022-12-20T00:24:03.550Z,999.66
2022-12-20T00:25:03.569Z,999.67
2022-12-20T00:26:03.588Z,999.68
2022-12-20T00:27:03.603Z,999.6
2022-12-20T00:28:03.606Z,999.65
2022-12-20T00:29:03.652Z,999.67
2022-12-20T00:30:03.640Z,999.61
2022-12-20T00:31:03.721Z,999.65
2022-12-20T00:32:03.718Z,999.59
2022-12-20T00:33:03.674Z,999.61
2022-12-20T00:34:03.712Z,999.58
2022-12-20T00:35:03.701Z,999.54
2022-12-20T00:36:03.723Z,999.6
2022-12-20T00:37:03.944Z,999.61
2022-12-20T00:38:03.746Z,999.65
2022-12-20T00:39:03.759Z,999.61
2022-12-20T00:40:03.774Z,999.6
2022-12-20T00:41:03.789Z,999.63
2022-12-20T00:42:03.794Z,999.58
2022-12-20T00:43:03.812Z,999.5
2022-12-20T00:44:03.822Z,999.49
2022-12-20T00:45:03.852Z,999.49
2022-12-20T00:46:03.856Z,999.43
2022-12-20T00:47:03.925Z,999.41
2022-12-20T00:48:03.879Z,999.4
2022-12-20T00:49:03.897Z,999.38
2022-12-20T00:50:03.951Z,999.34
2022-12-20T00:51:03.925Z,999.29
2022-12-20T00:52:03.938Z,999.25
2022-12-20T00:53:03.950Z,999.27
2022-12-20T00:54:03.969Z,999.27
2022-12-20T00:55:03.980Z,999.2
2022-12-20T00:56:03.994Z,999.14
2022-12-20T00:57:04.008Z,999.08
2022-12-20T00:58:04.022Z,999.1
2022-12-20T00:59:04.033Z,999.13
2022-12-20T01:00:04.049Z,999.06
2022-12-20T01:01:04.124Z,999.08
2022-12-20T01:02:04.359Z,999.07
2022-12-20T01:03:04.243Z,999.04
2022-12-20T01:04:04.112Z,999
2022-12-20T01:05:04.129Z,999
2022-12-20T01:06:04.153Z,998.91
2022-12-20T01:07:04.149Z,998.92
2022-12-20T01:08:04.156Z,998.96
2022-12-20T01:09:04.202Z,998.94
2022-12-20T01:10:04.183Z,998.94
2022-12-20T01:11:04.202Z,998.92
2022-12-20T01:12:04.220Z,998.97
2022-12-20T01:13:04.227Z,998.95
2022-12-20T01:14:04.236Z,998.98
2022-12-20T01:15:04.256Z,998.96
2022-12-20T01:16:04.300Z,998.99
2022-12-20T01:17:04.360Z,998.96
2022-12-20T01:18:04.292Z,998.94
2022-12-20T01:19:04.331Z,998.95
2022-12-20T01:20:04.324Z,998.94
2022-12-20T01:21:04.335Z,998.93
2022-12-20T01:22:04.373Z,998.89
2022-12-20T01:23:04.375Z,998.83
2022-12-20T01:24:04.381Z,998.78
2022-12-20T01:25:04.400Z,998.77
2022-12-20T01:26:04.402Z,998.75
2022-12-20T01:27:04.420Z,998.77
2022-12-20T01:28:04.438Z,998.77
2022-12-20T01:29:04.453Z,998.84
2022-12-20T01:30:04.464Z,998.79
2022-12-20T01:31:04.473Z,998.82
2022-12-20T01:32:04.571Z,998.83
2022-12-20T01:33:04.506Z,998.87
2022-12-20T01:34:04.510Z,998.87
2022-12-20T01:35:04.527Z,998.89
2022-12-20T01:36:04.544Z,998.9
2022-12-20T01:37:04.757Z,998.82
2022-12-20T01:38:04.598Z,998.87
2022-12-20T01:39:04.584Z,998.88
2022-12-20T01:40:04.617Z,998.84
2022-12-20T01:41:04.617Z,998.81
2022-12-20T01:42:04.624Z,998.81
2022-12-20T01:43:04.662Z,998.75
2022-12-20T01:44:04.649Z,998.8
2022-12-20T01:45:04.669Z,998.78
2022-12-20T01:46:04.788Z,998.82
2022-12-20T01:47:04.712Z,998.8
2022-12-20T01:48:04.707Z,998.83
2022-12-20T01:49:04.729Z,998.87
2022-12-20T01:50:04.740Z,998.78
2022-12-20T01:51:04.755Z,998.78
2022-12-20T01:52:04.760Z,998.75
2022-12-20T01:53:04.774Z,998.77
2022-12-20T01:54:04.807Z,998.78
2022-12-20T01:55:04.799Z,998.85
2022-12-20T01:56:04.818Z,998.86
2022-12-20T01:57:04.830Z,998.85
2022-12-20T01:58:04.844Z,998.96
2022-12-20T01:59:04.867Z,999.04
2022-12-20T02:00:04.881Z,999.08
2022-12-20T02:01:04.952Z,999.08
2022-12-20T02:02:05.245Z,999.1
2022-12-20T02:03:05.078Z,999.11
2022-12-20T02:04:04.938Z,999.06
2022-12-20T02:05:04.974Z,999.09
2022-12-20T02:06:04.953Z,999.03
2022-12-20T02:07:04.963Z,999.01
2022-12-20T02:08:04.988Z,999.02
2022-12-20T02:09:04.990Z,999.03
2022-12-20T02:10:05.036Z,999.01
2022-12-20T02:11:05.026Z,999
2022-12-20T02:12:05.036Z,998.92
2022-12-20T02:13:05.054Z,998.84
2022-12-20T02:14:05.064Z,998.76
2022-12-20T02:15:05.074Z,998.73
2022-12-20T02:16:05.088Z,998.71
2022-12-20T02:17:05.214Z,998.71
2022-12-20T02:18:05.115Z,998.7
2022-12-20T02:19:05.127Z,998.69
2022-12-20T02:20:05.159Z,998.7
2022-12-20T02:21:05.156Z,998.71
2022-12-20T02:22:05.170Z,998.74
2022-12-20T02:23:05.187Z,998.66
2022-12-20T02:24:05.203Z,998.65
2022-12-20T02:25:05.212Z,998.67
2022-12-20T02:26:05.250Z,998.64
2022-12-20T02:27:05.310Z,998.65
2022-12-20T02:28:05.253Z,998.62
2022-12-20T02:29:05.275Z,998.58
2022-12-20T02:30:05.280Z,998.56
2022-12-20T02:31:05.292Z,998.55
2022-12-20T02:32:05.396Z,998.53
2022-12-20T02:33:05.319Z,998.56
2022-12-20T02:34:05.339Z,998.54
2022-12-20T02:35:05.349Z,998.48
2022-12-20T02:36:05.363Z,998.52
2022-12-20T02:37:05.826Z,998.52
2022-12-20T02:38:05.386Z,998.55
2022-12-20T02:39:05.412Z,998.59
2022-12-20T02:40:05.420Z,998.66
2022-12-20T02:41:05.431Z,998.63
2022-12-20T02:42:05.477Z,998.5
2022-12-20T02:43:05.460Z,998.5
2022-12-20T02:44:05.469Z,998.52
2022-12-20T02:45:05.581Z,998.57
2022-12-20T02:46:05.551Z,998.56
2022-12-20T02:47:05.537Z,998.61
2022-12-20T02:48:05.525Z,998.56
2022-12-20T02:49:05.538Z,998.51
2022-12-20T02:50:05.553Z,998.52
2022-12-20T02:51:05.576Z,998.53
2022-12-20T02:52:05.582Z,998.53
2022-12-20T02:53:05.594Z,998.58
2022-12-20T02:54:05.626Z,998.54
2022-12-20T02:55:05.624Z,998.44
2022-12-20T02:56:05.635Z,998.5
2022-12-20T02:57:05.652Z,998.45
2022-12-20T02:58:05.691Z,998.42
2022-12-20T02:59:05.676Z,998.39
2022-12-20T03:00:05.692Z,998.36
2022-12-20T03:01:05.754Z,998.34
2022-12-20T03:02:05.904Z,998.34
2022-12-20T03:03:05.828Z,998.37
2022-12-20T03:04:05.749Z,998.36
2022-12-20T03:05:05.760Z,998.29
2022-12-20T03:06:05.773Z,998.39
2022-12-20T03:07:05.793Z,998.45
2022-12-20T03:08:05.798Z,998.37
2022-12-20T03:09:05.914Z,998.38
2022-12-20T03:10:05.826Z,998.36
2022-12-20T03:11:05.843Z,998.3
2022-12-20T03:12:05.862Z,998.25
2022-12-20T03:13:05.873Z,998.24
2022-12-20T03:14:05.910Z,998.21
2022-12-20T03:15:05.905Z,998.19
2022-12-20T03:16:05.911Z,998.17
2022-12-20T03:17:05.978Z,998.06
2022-12-20T03:18:05.949Z,998.03
2022-12-20T03:19:05.950Z,998.11
2022-12-20T03:20:05.966Z,998.14
2022-12-20T03:21:05.991Z,998.21
2022-12-20T03:22:06.015Z,998.21
2022-12-20T03:23:06.006Z,998.24
2022-12-20T03:24:06.018Z,998.24
2022-12-20T03:25:06.038Z,998.2
2022-12-20T03:26:06.048Z,998.16
2022-12-20T03:27:06.072Z,998.2
2022-12-20T03:28:06.080Z,998.2
2022-12-20T03:29:06.087Z,998.25
2022-12-20T03:30:06.132Z,998.24
2022-12-20T03:31:06.196Z,998.28
2022-12-20T03:32:06.137Z,998.21
2022-12-20T03:33:06.142Z,998.19
2022-12-20T03:34:06.158Z,998.24
2022-12-20T03:35:06.168Z,998.22
2022-12-20T03:36:06.186Z,998.2
2022-12-20T03:37:06.609Z,998.2
2022-12-20T03:38:06.215Z,998.2
2022-12-20T03:39:06.231Z,998.19
2022-12-20T03:40:06.240Z,998.18
2022-12-20T03:41:06.253Z,998.18
2022-12-20T03:42:06.268Z,998.17
2022-12-20T03:43:06.280Z,998.22
2022-12-20T03:44:06.371Z,998.16
2022-12-20T03:45:06.324Z,998.22
2022-12-20T03:46:06.445Z,998.2
2022-12-20T03:47:06.343Z,998.23
2022-12-20T03:48:06.355Z,998.25
2022-12-20T03:49:06.368Z,998.22
2022-12-20T03:50:06.394Z,998.22
2022-12-20T03:51:06.390Z,998.2
2022-12-20T03:52:06.407Z,998.25
2022-12-20T03:53:06.420Z,998.25
2022-12-20T03:54:06.434Z,998.24
2022-12-20T03:55:06.445Z,998.3
2022-12-20T03:56:06.475Z,998.35
2022-12-20T03:57:06.472Z,998.35
2022-12-20T03:58:06.491Z,998.32
2022-12-20T03:59:06.505Z,998.33
2022-12-20T04:00:06.518Z,998.24
2022-12-20T04:01:06.576Z,998.35
2022-12-20T04:02:06.714Z,998.36
2022-12-20T04:03:06.680Z,998.27
2022-12-20T04:04:06.571Z,998.32
2022-12-20T04:05:06.583Z,998.31
2022-12-20T04:06:06.602Z,998.35
2022-12-20T04:07:06.616Z,998.39
2022-12-20T04:08:06.642Z,998.4
2022-12-20T04:09:06.640Z,998.42
2022-12-20T04:10:06.655Z,998.45
2022-12-20T04:11:06.675Z,998.46
2022-12-20T04:12:06.680Z,998.48
2022-12-20T04:13:06.694Z,998.52
2022-12-20T04:14:06.709Z,998.49
2022-12-20T04:15:06.726Z,998.46
2022-12-20T04:16:06.754Z,998.52
2022-12-20T04:17:06.752Z,998.49
2022-12-20T04:18:06.790Z,998.46
2022-12-20T04:19:06.783Z,998.5
2022-12-20T04:20:06.792Z,998.47
2022-12-20T04:21:06.808Z,998.44
2022-12-20T04:22:06.828Z,998.45
2022-12-20T04:23:06.833Z,998.42
2022-12-20T04:24:06.846Z,998.46
2022-12-20T04:25:06.867Z,998.44
2022-12-20T04:26:06.876Z,998.42
2022-12-20T04:27:06.897Z,998.42
2022-12-20T04:28:06.906Z,998.39
2022-12-20T04:29:06.925Z,998.39
2022-12-20T04:30:06.934Z,998.32
2022-12-20T04:31:06.989Z,998.32
2022-12-20T04:32:06.960Z,998.37
2022-12-20T04:33:06.982Z,998.37
2022-12-20T04:34:07.015Z,998.35
2022-12-20T04:35:07.021Z,998.36
2022-12-20T04:36:07.017Z,998.37
2022-12-20T04:37:07.231Z,998.29
2022-12-20T04:38:07.045Z,998.29
2022-12-20T04:39:07.065Z,998.36
2022-12-20T04:40:07.097Z,998.29
2022-12-20T04:41:07.085Z,998.32
2022-12-20T04:42:07.102Z,998.22
2022-12-20T04:43:07.118Z,998.3
2022-12-20T04:44:07.128Z,998.3
2022-12-20T04:45:07.142Z,998.29
2022-12-20T04:46:07.173Z,998.33
2022-12-20T04:47:07.184Z,998.31
2022-12-20T04:48:28.967Z,998.29
2022-12-20T04:49:16.692Z,998.32
2022-12-20T04:50:16.684Z,998.29
2022-12-20T04:51:16.701Z,998.27
2022-12-20T04:52:16.710Z,998.22
2022-12-20T04:53:16.726Z,998.17
2022-12-20T04:54:16.738Z,998.12
2022-12-20T04:55:16.780Z,998.13
2022-12-20T04:56:16.765Z,998.15
2022-12-20T04:57:16.781Z,998.14
2022-12-20T04:58:16.803Z,998.15
2022-12-20T04:59:16.816Z,998.16
2022-12-20T05:00:16.821Z,998.14
2022-12-20T05:01:16.923Z,998.15
2022-12-20T05:02:17.028Z,998.16
2022-12-20T05:03:16.952Z,998.14
2022-12-20T05:04:16.905Z,998.11
2022-12-20T05:05:16.921Z,998.09
2022-12-20T05:06:16.912Z,998.08
2022-12-20T05:07:16.934Z,998.13
2022-12-20T05:08:16.935Z,998.17
2022-12-20T05:09:16.945Z,998.14
2022-12-20T05:10:16.961Z,998.15
2022-12-20T05:11:16.980Z,998.21
2022-12-20T05:12:16.988Z,998.22
2022-12-20T05:13:17.006Z,998.16
2022-12-20T05:14:17.019Z,998.25
2022-12-20T05:15:17.029Z,998.21
2022-12-20T05:16:17.099Z,998.23
2022-12-20T05:17:17.067Z,998.11
2022-12-20T05:18:17.073Z,998.18
2022-12-20T05:19:17.088Z,998.19
2022-12-20T05:20:17.101Z,998.14
2022-12-20T05:21:17.139Z,998.14
2022-12-20T05:22:17.131Z,998.14
2022-12-20T05:23:17.141Z,998.16
2022-12-20T05:24:17.156Z,998.19
2022-12-20T05:25:17.172Z,998.22
2022-12-20T05:26:17.183Z,998.3
2022-12-20T05:27:17.206Z,998.25
2022-12-20T05:28:17.214Z,998.31
2022-12-20T05:29:17.223Z,998.29
2022-12-20T05:30:17.244Z,998.32
2022-12-20T05:31:17.362Z,998.27
2022-12-20T05:32:17.268Z,998.26
2022-12-20T05:33:17.282Z,998.28
2022-12-20T05:34:17.304Z,998.25
2022-12-20T05:35:17.313Z,998.27
2022-12-20T05:36:17.332Z,998.19
2022-12-20T05:37:17.561Z,998.19
2022-12-20T05:38:17.359Z,998.17
2022-12-20T05:39:17.376Z,998.2
2022-12-20T05:40:17.382Z,998.19
2022-12-20T05:41:17.389Z,998.22
2022-12-20T05:42:17.406Z,998.24
2022-12-20T05:43:17.417Z,998.26
2022-12-20T05:44:17.438Z,998.26
2022-12-20T05:45:17.447Z,998.28
2022-12-20T05:46:17.507Z,998.29
2022-12-20T05:47:17.473Z,998.26
2022-12-20T05:48:17.492Z,998.26
2022-12-20T05:49:17.504Z,998.26
2022-12-20T05:50:19.062Z,998.23
2022-12-20T05:51:17.532Z,998.24
2022-12-20T05:52:17.546Z,998.24
2022-12-20T05:53:17.588Z,998.24
2022-12-20T05:54:17.622Z,998.2
2022-12-20T05:55:17.589Z,998.23
2022-12-20T05:56:17.602Z,998.2
2022-12-20T05:57:17.620Z,998.25
2022-12-20T05:58:17.645Z,998.23
2022-12-20T05:59:17.648Z,998.2
2022-12-20T06:00:17.672Z,998.28
2022-12-20T06:01:17.671Z,998.25
2022-12-20T06:02:17.930Z,998.25
2022-12-20T06:03:17.869Z,998.27
2022-12-20T06:04:17.764Z,998.23
2022-12-20T06:05:17.729Z,998.23
2022-12-20T06:06:17.740Z,998.21
2022-12-20T06:07:17.756Z,998.15
2022-12-20T06:08:17.777Z,998.12
2022-12-20T06:09:17.807Z,998.19
2022-12-20T06:10:17.796Z,998.14
2022-12-20T06:11:17.821Z,998.11
2022-12-20T06:12:17.821Z,998.05
2022-12-20T06:13:17.838Z,998.07
2022-12-20T06:14:17.851Z,998.07
2022-12-20T06:15:17.867Z,998.01
2022-12-20T06:16:17.947Z,998
2022-12-20T06:17:17.895Z,998.02
2022-12-20T06:18:17.912Z,998.05
2022-12-20T06:19:21.527Z,998.08
2022-12-20T06:20:17.939Z,998.11
2022-12-20T06:21:17.996Z,998.12
2022-12-20T06:22:17.965Z,998.07
2022-12-20T06:23:17.982Z,998.08
2022-12-20T06:24:17.996Z,998.09
2022-12-20T06:25:18.038Z,998.02
2022-12-20T06:26:18.022Z,998.04
2022-12-20T06:27:18.050Z,998.05
2022-12-20T06:28:18.053Z,998.09
2022-12-20T06:29:18.084Z,998.11
2022-12-20T06:30:18.089Z,998.19
2022-12-20T06:31:18.137Z,998.11
2022-12-20T06:32:18.111Z,998.11
2022-12-20T06:33:18.120Z,998.06
2022-12-20T06:34:18.148Z,998.03
2022-12-20T06:35:18.150Z,998.02
2022-12-20T06:36:18.160Z,998
2022-12-20T06:37:18.226Z,997.93
2022-12-20T06:38:18.191Z,997.99
2022-12-20T06:39:18.203Z,997.9
2022-12-20T06:40:18.226Z,997.88
2022-12-20T06:41:18.261Z,997.91
2022-12-20T06:42:18.247Z,997.97
2022-12-20T06:43:18.259Z,997.96
2022-12-20T06:44:18.282Z,997.91
2022-12-20T06:45:18.293Z,997.94
2022-12-20T06:46:18.376Z,997.88
2022-12-20T06:47:18.327Z,997.88
2022-12-20T06:48:18.340Z,997.91
2022-12-20T06:49:18.349Z,997.85
2022-12-20T06:50:18.359Z,997.91
2022-12-20T06:51:18.375Z,997.89
2022-12-20T06:52:18.390Z,997.89
2022-12-20T06:53:18.401Z,997.88
2022-12-20T06:54:18.418Z,997.9
2022-12-20T06:55:18.432Z,997.9
2022-12-20T06:56:18.445Z,997.87
2022-12-20T06:57:18.482Z,997.92
2022-12-20T06:58:18.480Z,997.85
2022-12-20T06:59:18.494Z,997.87
2022-12-20T07:00:18.502Z,997.85
2022-12-20T07:01:18.542Z,997.83
2022-12-20T07:02:18.715Z,997.83
2022-12-20T07:03:18.755Z,997.84
2022-12-20T07:04:18.561Z,997.78
2022-12-20T07:05:18.573Z,997.8
2022-12-20T07:06:18.588Z,997.74
2022-12-20T07:07:18.600Z,997.83
2022-12-20T07:08:18.620Z,997.81
2022-12-20T07:09:18.633Z,997.86
2022-12-20T07:10:18.646Z,997.81
2022-12-20T07:11:18.654Z,997.81
2022-12-20T07:12:18.672Z,997.7
2022-12-20T07:13:18.720Z,997.7
2022-12-20T07:14:18.702Z,997.69
2022-12-20T07:15:18.741Z,997.71
2022-12-20T07:16:18.747Z,997.74
2022-12-20T07:17:18.740Z,997.74
2022-12-20T07:18:18.765Z,997.73
2022-12-20T07:19:18.771Z,997.73
2022-12-20T07:20:18.792Z,997.69
2022-12-20T07:21:18.799Z,997.7
2022-12-20T07:22:18.815Z,997.63
2022-12-20T07:23:18.830Z,997.7
2022-12-20T07:24:18.879Z,997.68
2022-12-20T07:25:18.858Z,997.72
2022-12-20T07:26:18.898Z,997.66
2022-12-20T07:27:18.884Z,997.66
2022-12-20T07:28:18.899Z,997.67
2022-12-20T07:29:18.938Z,997.62
2022-12-20T07:30:18.928Z,997.69
2022-12-20T07:31:18.972Z,997.64
2022-12-20T07:32:19.009Z,997.69
2022-12-20T07:33:18.973Z,997.68
2022-12-20T07:34:18.991Z,997.68
2022-12-20T07:35:18.999Z,997.65
2022-12-20T07:36:19.016Z,997.66
2022-12-20T07:37:19.426Z,997.68
2022-12-20T07:38:19.033Z,997.69
2022-12-20T07:39:19.058Z,997.65
2022-12-20T07:40:19.069Z,997.63
2022-12-20T07:41:19.093Z,997.62
2022-12-20T07:42:19.102Z,997.57
2022-12-20T07:43:19.124Z,997.61
2022-12-20T07:44:19.154Z,997.61
2022-12-20T07:45:19.166Z,997.57
2022-12-20T07:46:19.240Z,997.56
2022-12-20T07:47:19.179Z,997.48
2022-12-20T07:48:21.742Z,997.47
2022-12-20T07:49:19.201Z,997.44
2022-12-20T07:50:19.218Z,997.41
2022-12-20T07:51:19.227Z,997.4
2022-12-20T07:52:19.238Z,997.39
2022-12-20T07:53:19.256Z,997.42
2022-12-20T07:54:19.268Z,997.38
2022-12-20T07:55:19.292Z,997.36
2022-12-20T07:56:19.298Z,997.42
2022-12-20T07:57:19.422Z,997.44
2022-12-20T07:58:19.321Z,997.49
2022-12-20T07:59:19.340Z,997.57
2022-12-20T08:00:19.360Z,997.52
2022-12-20T08:01:19.571Z,997.58
2022-12-20T08:02:19.564Z,997.58
2022-12-20T08:03:19.528Z,997.58
2022-12-20T08:04:19.411Z,997.51
2022-12-20T08:05:19.428Z,997.58
2022-12-20T08:06:19.444Z,997.54
2022-12-20T08:07:19.453Z,997.5
2022-12-20T08:08:19.469Z,997.46
2022-12-20T08:09:19.486Z,997.47
2022-12-20T08:10:19.502Z,997.48
2022-12-20T08:11:19.522Z,997.53
2022-12-20T08:12:19.524Z,997.5
2022-12-20T08:13:19.538Z,997.54
2022-12-20T08:14:19.563Z,997.53
2022-12-20T08:15:19.577Z,997.52
2022-12-20T08:16:19.682Z,997.48
2022-12-20T08:17:19.711Z,997.48
2022-12-20T08:18:19.612Z,997.47
2022-12-20T08:19:19.627Z,997.36
2022-12-20T08:20:19.658Z,997.43
2022-12-20T08:21:19.660Z,997.38
2022-12-20T08:22:19.672Z,997.36
2022-12-20T08:23:19.705Z,997.35
2022-12-20T08:24:19.697Z,997.33
2022-12-20T08:25:19.715Z,997.32
2022-12-20T08:26:19.729Z,997.36
2022-12-20T08:27:19.739Z,997.27
2022-12-20T08:28:19.755Z,997.26
2022-12-20T08:29:19.778Z,997.32
2022-12-20T08:30:19.782Z,997.28
2022-12-20T08:31:19.834Z,997.32
2022-12-20T08:32:19.818Z,997.33
2022-12-20T08:33:19.858Z,997.37
2022-12-20T08:34:19.851Z,997.3
2022-12-20T08:35:19.854Z,997.31
2022-12-20T08:36:19.870Z,997.28
2022-12-20T08:37:20.084Z,997.37
2022-12-20T08:38:19.901Z,997.3
2022-12-20T08:39:19.917Z,997.32
2022-12-20T08:40:19.928Z,997.25
2022-12-20T08:41:19.941Z,997.24
2022-12-20T08:42:19.963Z,997.22
2022-12-20T08:43:19.968Z,997.16
2022-12-20T08:44:19.986Z,997.17
2022-12-20T08:45:20.013Z,997.19
2022-12-20T08:46:20.176Z,997.17
2022-12-20T08:47:20.040Z,997.14
2022-12-20T08:48:20.043Z,997.19
2022-12-20T08:49:20.087Z,997.21
2022-12-20T08:50:20.081Z,997.18
2022-12-20T08:51:20.176Z,997.2
2022-12-20T08:52:20.099Z,997.12
2022-12-20T08:53:20.116Z,997.14
2022-12-20T08:54:20.134Z,997.18
2022-12-20T08:55:24.630Z,997.21
2022-12-20T08:56:20.178Z,997.23
2022-12-20T08:57:20.170Z,997.2
2022-12-20T08:58:20.186Z,997.19
2022-12-20T08:59:20.206Z,997.24
2022-12-20T09:00:20.227Z,997.23
2022-12-20T09:01:20.315Z,997.22
2022-12-20T09:02:20.409Z,997.28
2022-12-20T09:03:20.330Z,997.23
2022-12-20T09:04:20.281Z,997.25
2022-12-20T09:05:20.311Z,997.22
2022-12-20T09:06:20.296Z,997.25
2022-12-20T09:07:20.314Z,997.18
2022-12-20T09:08:20.329Z,997.25
2022-12-20T09:09:20.344Z,997.2
2022-12-20T09:10:20.374Z,997.23
2022-12-20T09:11:20.371Z,997.28
2022-12-20T09:12:20.434Z,997.29
2022-12-20T09:13:20.401Z,997.3
2022-12-20T09:14:20.413Z,997.35
2022-12-20T09:15:20.451Z,997.36
2022-12-20T09:16:20.559Z,997.24
2022-12-20T09:17:20.457Z,997.25
2022-12-20T09:18:20.471Z,997.3
2022-12-20T09:19:20.486Z,997.24
2022-12-20T09:20:20.501Z,997.22
2022-12-20T09:21:20.579Z,997.25
2022-12-20T09:22:20.533Z,997.21
2022-12-20T09:23:20.542Z,997.22
2022-12-20T09:24:20.555Z,997.25
2022-12-20T09:25:20.573Z,997.21
2022-12-20T09:26:20.581Z,997.17
2022-12-20T09:27:20.601Z,997.16
2022-12-20T09:28:20.637Z,997.18
2022-12-20T09:29:26.089Z,997.09
2022-12-20T09:30:20.640Z,997.13
2022-12-20T09:31:20.693Z,997.09
2022-12-20T09:32:20.671Z,997.13
2022-12-20T09:33:20.693Z,997.07
2022-12-20T09:34:20.700Z,997.11
2022-12-20T09:35:23.142Z,997.08
2022-12-20T09:36:20.739Z,997.05
2022-12-20T09:37:21.180Z,996.96
2022-12-20T09:38:20.755Z,996.9
2022-12-20T09:39:20.795Z,996.89
2022-12-20T09:40:20.785Z,996.89
2022-12-20T09:41:22.844Z,996.84
2022-12-20T09:42:20.814Z,996.83
2022-12-20T09:43:20.848Z,996.76
2022-12-20T09:44:20.843Z,996.76
2022-12-20T09:45:20.859Z,996.74
2022-12-20T09:46:20.944Z,996.82
2022-12-20T09:47:20.889Z,996.82
2022-12-20T09:48:20.906Z,996.92
2022-12-20T09:49:20.916Z,997
2022-12-20T09:50:20.931Z,996.94
2022-12-20T09:51:20.949Z,996.96
2022-12-20T09:52:20.964Z,996.89
2022-12-20T09:53:21.004Z,996.91
2022-12-20T09:54:20.990Z,996.96
2022-12-20T09:55:21.004Z,996.83
2022-12-20T09:56:21.014Z,996.87
2022-12-20T09:57:21.038Z,996.8
2022-12-20T09:58:21.044Z,996.73
2022-12-20T09:59:21.063Z,996.71
2022-12-20T10:00:21.092Z,996.69
2022-12-20T10:01:24.859Z,996.72
2022-12-20T10:02:54.173Z,996.72
2022-12-20T10:03:21.251Z,996.72
2022-12-20T10:04:21.296Z,996.71
2022-12-20T10:05:21.262Z,996.74
2022-12-20T10:06:21.158Z,996.73
2022-12-20T10:07:21.221Z,996.71
2022-12-20T10:08:21.188Z,996.74
2022-12-20T10:09:21.230Z,996.68
2022-12-20T10:10:21.217Z,996.7
2022-12-20T10:11:21.233Z,996.75
2022-12-20T10:12:21.249Z,996.74
2022-12-20T10:13:21.265Z,996.78
2022-12-20T10:14:21.280Z,996.81
2022-12-20T10:15:21.294Z,996.8
2022-12-20T10:16:21.351Z,996.81
2022-12-20T10:17:21.320Z,996.82
2022-12-20T10:18:21.354Z,996.77
2022-12-20T10:19:21.351Z,996.85
2022-12-20T10:20:21.391Z,996.76
2022-12-20T10:21:21.374Z,996.77
2022-12-20T10:22:21.388Z,996.75
2022-12-20T10:23:21.411Z,996.8
2022-12-20T10:24:21.419Z,996.84
2022-12-20T10:25:21.460Z,996.81
2022-12-20T10:26:21.451Z,996.82
2022-12-20T10:27:21.476Z,996.85
2022-12-20T10:28:21.477Z,996.82
2022-12-20T10:29:21.498Z,996.82
2022-12-20T10:30:21.508Z,996.87
2022-12-20T10:31:21.627Z,996.9
2022-12-20T10:32:21.549Z,996.81
2022-12-20T10:33:21.554Z,996.86
2022-12-20T10:34:21.573Z,996.85
2022-12-20T10:35:21.577Z,996.8
2022-12-20T10:36:21.609Z,996.74
2022-12-20T10:37:21.809Z,996.69
2022-12-20T10:38:21.629Z,996.68
2022-12-20T10:39:21.636Z,996.63
2022-12-20T10:40:21.650Z,996.65
2022-12-20T10:41:25.790Z,996.62
2022-12-20T10:42:25.789Z,996.53
2022-12-20T10:43:25.798Z,996.57
2022-12-20T10:44:25.815Z,996.54
2022-12-20T10:45:28.609Z,996.54
2022-12-20T10:46:25.858Z,996.53
2022-12-20T10:47:25.854Z,996.48
2022-12-20T10:48:25.865Z,996.46
2022-12-20T10:49:25.879Z,996.45
2022-12-20T10:50:25.894Z,996.45
2022-12-20T10:51:25.909Z,996.43
2022-12-20T10:52:25.927Z,996.4
2022-12-20T10:53:25.937Z,996.35
2022-12-20T10:54:25.953Z,996.3
2022-12-20T10:55:25.968Z,996.31
2022-12-20T10:56:25.982Z,996.3
2022-12-20T10:57:26.187Z,996.34
2022-12-20T10:58:26.013Z,996.33
2022-12-20T10:59:26.022Z,996.35
2022-12-20T11:00:26.042Z,996.38
2022-12-20T11:01:26.142Z,996.31
2022-12-20T11:02:26.272Z,996.35
2022-12-20T11:03:26.370Z,996.38
2022-12-20T11:04:26.241Z,996.33
2022-12-20T11:05:26.110Z,996.37
2022-12-20T11:06:26.174Z,996.36
2022-12-20T11:07:26.218Z,996.34
2022-12-20T11:08:50.022Z,996.29
2022-12-20T11:09:26.169Z,996.32
2022-12-20T11:10:26.183Z,996.3
2022-12-20T11:11:26.211Z,996.29
2022-12-20T11:12:26.214Z,996.31
2022-12-20T11:13:26.267Z,996.34
2022-12-20T11:14:26.247Z,996.36
2022-12-20T11:15:29.551Z,996.37
2022-12-20T11:16:26.483Z,996.34
2022-12-20T11:17:26.285Z,996.3
2022-12-20T11:18:26.298Z,996.28
2022-12-20T11:19:26.316Z,996.25
2022-12-20T11:20:26.329Z,996.26
2022-12-20T11:21:28.444Z,996.29
2022-12-20T11:22:26.361Z,996.26
2022-12-20T11:23:26.400Z,996.21
2022-12-20T11:24:26.388Z,996.22
2022-12-20T11:25:26.412Z,996.21
2022-12-20T11:26:26.441Z,996.21
2022-12-20T11:27:26.432Z,996.19
2022-12-20T11:28:26.444Z,996.18
2022-12-20T11:29:26.486Z,996.21
2022-12-20T11:30:26.475Z,996.22
2022-12-20T11:31:26.566Z,996.19
2022-12-20T11:32:26.513Z,996.14
2022-12-20T11:33:26.519Z,996.12
2022-12-20T11:34:26.540Z,996.15
2022-12-20T11:35:26.548Z,996.04
2022-12-20T11:36:26.563Z,996.03
2022-12-20T11:37:26.632Z,996.04
2022-12-20T11:38:26.593Z,996.03
2022-12-20T11:39:26.605Z,996.01
2022-12-20T11:40:26.626Z,996.02
2022-12-20T11:41:26.636Z,996
2022-12-20T11:42:26.656Z,996
2022-12-20T11:43:26.671Z,996
2022-12-20T11:44:27.560Z,995.95
2022-12-20T11:45:26.730Z,995.94
2022-12-20T11:46:26.797Z,995.88
2022-12-20T11:47:26.723Z,995.83
2022-12-20T11:48:26.735Z,995.76
2022-12-20T11:49:26.757Z,995.76
2022-12-20T11:50:26.767Z,995.75
2022-12-20T11:51:27.303Z,995.71
2022-12-20T11:52:26.795Z,995.68
2022-12-20T11:53:26.815Z,995.65
2022-12-20T11:54:26.846Z,995.64
2022-12-20T11:55:26.864Z,995.67
2022-12-20T11:56:26.847Z,995.71
2022-12-20T11:57:26.866Z,995.71
2022-12-20T11:58:30.042Z,995.66
2022-12-20T11:59:30.034Z,995.59
2022-12-20T12:00:30.078Z,995.6
2022-12-20T12:01:30.137Z,995.58
2022-12-20T12:02:30.186Z,995.6
2022-12-20T12:03:30.094Z,995.62
2022-12-20T12:04:30.111Z,995.6
2022-12-20T12:05:30.229Z,995.56
2022-12-20T12:06:30.138Z,995.54
2022-12-20T12:07:30.157Z,995.6
2022-12-20T12:08:30.170Z,995.6
2022-12-20T12:09:30.183Z,995.49
2022-12-20T12:10:30.211Z,995.43
2022-12-20T12:12:30.227Z,995.32
2022-12-20T12:13:30.241Z,995.28
2022-12-20T12:14:30.261Z,995.28
2022-12-20T12:15:30.272Z,995.33
2022-12-20T12:16:30.423Z,995.26
2022-12-20T12:17:30.296Z,995.26
2022-12-20T12:18:30.345Z,995.34
2022-12-20T12:19:30.330Z,995.33
2022-12-20T12:20:30.346Z,995.25
2022-12-20T12:21:30.362Z,995.27
2022-12-20T12:22:30.387Z,995.19
2022-12-20T12:23:30.386Z,995.23
2022-12-20T12:24:30.426Z,995.25
2022-12-20T12:25:30.415Z,995.27
2022-12-20T12:26:31.445Z,995.2
2022-12-20T12:27:30.452Z,995.23
2022-12-20T12:28:30.464Z,995.25
2022-12-20T12:29:30.473Z,995.26
2022-12-20T12:30:30.488Z,995.26
2022-12-20T12:31:30.537Z,995.18
2022-12-20T12:32:30.571Z,995.2